sensor_id;sensor_type;location;lat;lon;timestamp;P1;durP1;ratioP1;P2;durP2;ratioP2
25946;SDS011;13745;51.470;9.894;2023-07-30T00:00:51;3.22;;;2.08;;
25946;SDS011;13745;51.470;9.894;2023-07-30T00:03:36;2.65;;;1.92;;
25946;SDS011;13745;51.470;9.894;2023-07-30T00:06:22;1.85;;;1.63;;
25946;SDS011;13745;51.470;9.894;2023-07-30T00:09:08;2.53;;;1.88;;
25946;SDS011;13745;51.470;9.894;2023-07-30T00:11:53;2.58;;;2.10;;
25946;SDS011;13745;51.470;9.894;2023-07-30T00:14:38;2.15;;;1.88;;
25946;SDS011;13745;51.470;9.894;2023-07-30T00:17:23;2.10;;;1.55;;
25946;SDS011;13745;51.470;9.894;2023-07-30T00:20:09;1.77;;;1.52;;
25946;SDS011;13745;51.470;9.894;2023-07-30T00:22:55;2.65;;;1.50;;
25946;SDS011;13745;51.470;9.894;2023-07-30T00:25:41;2.65;;;1.50;;
25946;SDS011;13745;51.470;9.894;2023-07-30T00:28:26;3.88;;;1.92;;
25946;SDS011;13745;51.470;9.894;2023-07-30T00:31:11;1.40;;;1.30;;
25946;SDS011;13745;51.470;9.894;2023-07-30T00:33:56;2.90;;;1.40;;
25946;SDS011;13745;51.470;9.894;2023-07-30T00:36:41;4.13;;;1.90;;
25946;SDS011;13745;51.470;9.894;2023-07-30T00:39:28;1.58;;;1.48;;
25946;SDS011;13745;51.470;9.894;2023-07-30T00:42:13;3.28;;;1.60;;
25946;SDS011;13745;51.470;9.894;2023-07-30T00:44:59;1.70;;;1.60;;
25946;SDS011;13745;51.470;9.894;2023-07-30T00:47:44;1.65;;;1.55;;
25946;SDS011;13745;51.470;9.894;2023-07-30T00:50:30;8.77;;;2.03;;
25946;SDS011;13745;51.470;9.894;2023-07-30T00:53:16;1.55;;;1.45;;
25946;SDS011;13745;51.470;9.894;2023-07-30T00:56:04;2.72;;;1.65;;
25946;SDS011;13745;51.470;9.894;2023-07-30T00:58:50;6.65;;;2.00;;
25946;SDS011;13745;51.470;9.894;2023-07-30T01:01:35;3.30;;;1.40;;
25946;SDS011;13745;51.470;9.894;2023-07-30T01:04:26;1.58;;;1.40;;
25946;SDS011;13745;51.470;9.894;2023-07-30T01:07:12;3.63;;;1.58;;
25946;SDS011;13745;51.470;9.894;2023-07-30T01:09:57;2.35;;;1.90;;
25946;SDS011;13745;51.470;9.894;2023-07-30T01:12:45;2.15;;;1.70;;
25946;SDS011;13745;51.470;9.894;2023-07-30T01:15:31;5.30;;;1.60;;
25946;SDS011;13745;51.470;9.894;2023-07-30T01:18:16;1.80;;;1.42;;
25946;SDS011;13745;51.470;9.894;2023-07-30T01:21:02;1.73;;;1.50;;
25946;SDS011;13745;51.470;9.894;2023-07-30T01:23:48;3.80;;;1.75;;
25946;SDS011;13745;51.470;9.894;2023-07-30T01:26:34;3.80;;;1.70;;
25946;SDS011;13745;51.470;9.894;2023-07-30T01:29:25;2.97;;;1.45;;
25946;SDS011;13745;51.470;9.894;2023-07-30T01:32:14;1.55;;;1.45;;
25946;SDS011;13745;51.470;9.894;2023-07-30T01:35:01;2.70;;;1.73;;
25946;SDS011;13745;51.470;9.894;2023-07-30T01:37:48;3.70;;;1.50;;
25946;SDS011;13745;51.470;9.894;2023-07-30T01:40:34;2.35;;;1.45;;
25946;SDS011;13745;51.470;9.894;2023-07-30T01:43:20;1.98;;;1.40;;
25946;SDS011;13745;51.470;9.894;2023-07-30T01:46:05;2.20;;;1.50;;
25946;SDS011;13745;51.470;9.894;2023-07-30T01:48:50;1.70;;;1.42;;
25946;SDS011;13745;51.470;9.894;2023-07-30T01:51:35;3.13;;;1.40;;
25946;SDS011;13745;51.470;9.894;2023-07-30T01:54:22;3.63;;;1.42;;
25946;SDS011;13745;51.470;9.894;2023-07-30T01:57:07;1.92;;;1.80;;
25946;SDS011;13745;51.470;9.894;2023-07-30T01:59:53;7.07;;;2.10;;
25946;SDS011;13745;51.470;9.894;2023-07-30T02:02:38;2.80;;;1.60;;
25946;SDS011;13745;51.470;9.894;2023-07-30T02:05:24;3.33;;;1.73;;
25946;SDS011;13745;51.470;9.894;2023-07-30T02:08:09;3.10;;;2.05;;
25946;SDS011;13745;51.470;9.894;2023-07-30T02:10:55;2.10;;;1.58;;
25946;SDS011;13745;51.470;9.894;2023-07-30T02:13:41;1.90;;;1.70;;
25946;SDS011;13745;51.470;9.894;2023-07-30T02:16:26;2.00;;;1.60;;
25946;SDS011;13745;51.470;9.894;2023-07-30T02:19:11;2.85;;;1.83;;
25946;SDS011;13745;51.470;9.894;2023-07-30T02:21:56;2.65;;;1.35;;
25946;SDS011;13745;51.470;9.894;2023-07-30T02:24:41;3.72;;;1.73;;
25946;SDS011;13745;51.470;9.894;2023-07-30T02:27:28;3.17;;;2.10;;
25946;SDS011;13745;51.470;9.894;2023-07-30T02:30:14;3.15;;;1.70;;
25946;SDS011;13745;51.470;9.894;2023-07-30T02:32:59;1.85;;;1.58;;
25946;SDS011;13745;51.470;9.894;2023-07-30T02:35:44;2.05;;;1.60;;
25946;SDS011;13745;51.470;9.894;2023-07-30T02:38:30;5.55;;;1.88;;
25946;SDS011;13745;51.470;9.894;2023-07-30T02:41:15;3.15;;;1.85;;
25946;SDS011;13745;51.470;9.894;2023-07-30T02:44:02;4.80;;;1.67;;
25946;SDS011;13745;51.470;9.894;2023-07-30T02:46:47;2.00;;;1.70;;
25946;SDS011;13745;51.470;9.894;2023-07-30T02:49:33;1.67;;;1.58;;
25946;SDS011;13745;51.470;9.894;2023-07-30T02:52:18;4.28;;;1.60;;
25946;SDS011;13745;51.470;9.894;2023-07-30T02:55:03;2.67;;;1.85;;
25946;SDS011;13745;51.470;9.894;2023-07-30T02:57:49;1.50;;;1.40;;
25946;SDS011;13745;51.470;9.894;2023-07-30T03:00:36;4.45;;;1.65;;
25946;SDS011;13745;51.470;9.894;2023-07-30T03:03:21;1.77;;;1.50;;
25946;SDS011;13745;51.470;9.894;2023-07-30T03:06:06;3.13;;;2.03;;
25946;SDS011;13745;51.470;9.894;2023-07-30T03:08:51;1.92;;;1.73;;
25946;SDS011;13745;51.470;9.894;2023-07-30T03:11:36;4.00;;;1.40;;
25946;SDS011;13745;51.470;9.894;2023-07-30T03:14:21;1.60;;;1.50;;
25946;SDS011;13745;51.470;9.894;2023-07-30T03:17:07;4.00;;;1.55;;
25946;SDS011;13745;51.470;9.894;2023-07-30T03:19:53;3.05;;;1.35;;
25946;SDS011;13745;51.470;9.894;2023-07-30T03:22:38;3.03;;;1.85;;
25946;SDS011;13745;51.470;9.894;2023-07-30T03:25:23;2.55;;;1.60;;
25946;SDS011;13745;51.470;9.894;2023-07-30T03:28:08;2.50;;;1.88;;
25946;SDS011;13745;51.470;9.894;2023-07-30T03:30:53;1.40;;;1.25;;
25946;SDS011;13745;51.470;9.894;2023-07-30T03:33:39;2.20;;;1.70;;
25946;SDS011;13745;51.470;9.894;2023-07-30T03:36:27;2.63;;;1.40;;
25946;SDS011;13745;51.470;9.894;2023-07-30T03:39:12;2.83;;;2.10;;
25946;SDS011;13745;51.470;9.894;2023-07-30T03:41:57;4.47;;;1.80;;
25946;SDS011;13745;51.470;9.894;2023-07-30T03:44:42;3.28;;;2.15;;
25946;SDS011;13745;51.470;9.894;2023-07-30T03:47:27;5.28;;;1.65;;
25946;SDS011;13745;51.470;9.894;2023-07-30T03:50:14;2.13;;;1.75;;
25946;SDS011;13745;51.470;9.894;2023-07-30T03:52:59;2.10;;;1.40;;
25946;SDS011;13745;51.470;9.894;2023-07-30T03:55:45;1.88;;;1.40;;
25946;SDS011;13745;51.470;9.894;2023-07-30T03:58:30;6.90;;;1.70;;
25946;SDS011;13745;51.470;9.894;2023-07-30T04:01:15;2.97;;;1.75;;
25946;SDS011;13745;51.470;9.894;2023-07-30T04:04:01;3.08;;;1.65;;
25946;SDS011;13745;51.470;9.894;2023-07-30T04:06:48;2.78;;;2.10;;
25946;SDS011;13745;51.470;9.894;2023-07-30T04:09:33;4.90;;;1.92;;
25946;SDS011;13745;51.470;9.894;2023-07-30T04:12:18;2.78;;;1.88;;
25946;SDS011;13745;51.470;9.894;2023-07-30T04:15:05;2.60;;;2.03;;
25946;SDS011;13745;51.470;9.894;2023-07-30T04:17:51;2.10;;;1.90;;
25946;SDS011;13745;51.470;9.894;2023-07-30T04:20:36;2.20;;;2.00;;
25946;SDS011;13745;51.470;9.894;2023-07-30T04:23:22;3.47;;;2.47;;
25946;SDS011;13745;51.470;9.894;2023-07-30T04:26:07;3.85;;;2.17;;
25946;SDS011;13745;51.470;9.894;2023-07-30T04:28:52;4.05;;;2.20;;
25946;SDS011;13745;51.470;9.894;2023-07-30T04:31:38;9.05;;;2.30;;
25946;SDS011;13745;51.470;9.894;2023-07-30T04:34:23;4.25;;;2.47;;
25946;SDS011;13745;51.470;9.894;2023-07-30T04:37:08;2.63;;;2.35;;
25946;SDS011;13745;51.470;9.894;2023-07-30T04:39:56;3.03;;;2.08;;
25946;SDS011;13745;51.470;9.894;2023-07-30T04:42:42;4.22;;;2.13;;
25946;SDS011;13745;51.470;9.894;2023-07-30T04:45:27;3.47;;;1.80;;
25946;SDS011;13745;51.470;9.894;2023-07-30T04:48:13;3.05;;;1.80;;
25946;SDS011;13745;51.470;9.894;2023-07-30T04:50:58;3.30;;;2.10;;
25946;SDS011;13745;51.470;9.894;2023-07-30T04:53:43;3.05;;;2.10;;
25946;SDS011;13745;51.470;9.894;2023-07-30T04:56:29;5.18;;;2.10;;
25946;SDS011;13745;51.470;9.894;2023-07-30T04:59:14;3.17;;;2.17;;
25946;SDS011;13745;51.470;9.894;2023-07-30T05:01:59;4.25;;;2.10;;
25946;SDS011;13745;51.470;9.894;2023-07-30T05:04:44;4.18;;;2.03;;
25946;SDS011;13745;51.470;9.894;2023-07-30T05:07:29;3.38;;;2.47;;
25946;SDS011;13745;51.470;9.894;2023-07-30T05:10:15;2.22;;;2.00;;
25946;SDS011;13745;51.470;9.894;2023-07-30T05:13:01;3.42;;;2.03;;
25946;SDS011;13745;51.470;9.894;2023-07-30T05:15:46;5.97;;;2.45;;
25946;SDS011;13745;51.470;9.894;2023-07-30T05:18:32;5.05;;;2.28;;
25946;SDS011;13745;51.470;9.894;2023-07-30T05:21:17;7.70;;;1.88;;
25946;SDS011;13745;51.470;9.894;2023-07-30T05:24:02;5.65;;;2.25;;
25946;SDS011;13745;51.470;9.894;2023-07-30T05:26:48;5.95;;;2.17;;
25946;SDS011;13745;51.470;9.894;2023-07-30T05:29:34;2.85;;;1.85;;
25946;SDS011;13745;51.470;9.894;2023-07-30T05:32:20;4.40;;;2.10;;
25946;SDS011;13745;51.470;9.894;2023-07-30T05:35:05;3.78;;;2.08;;
25946;SDS011;13745;51.470;9.894;2023-07-30T05:37:50;6.53;;;2.30;;
25946;SDS011;13745;51.470;9.894;2023-07-30T05:40:36;5.93;;;2.38;;
25946;SDS011;13745;51.470;9.894;2023-07-30T05:43:21;4.45;;;1.92;;
25946;SDS011;13745;51.470;9.894;2023-07-30T05:46:07;5.57;;;2.00;;
25946;SDS011;13745;51.470;9.894;2023-07-30T05:48:52;3.38;;;1.98;;
25946;SDS011;13745;51.470;9.894;2023-07-30T05:51:37;4.07;;;1.75;;
25946;SDS011;13745;51.470;9.894;2023-07-30T05:54:22;3.78;;;2.03;;
25946;SDS011;13745;51.470;9.894;2023-07-30T05:57:07;2.75;;;1.75;;
25946;SDS011;13745;51.470;9.894;2023-07-30T05:59:52;4.53;;;1.80;;
25946;SDS011;13745;51.470;9.894;2023-07-30T06:02:39;4.03;;;2.08;;
25946;SDS011;13745;51.470;9.894;2023-07-30T06:05:24;3.40;;;1.73;;
25946;SDS011;13745;51.470;9.894;2023-07-30T06:08:09;2.30;;;1.55;;
25946;SDS011;13745;51.470;9.894;2023-07-30T06:11:00;5.25;;;2.00;;
25946;SDS011;13745;51.470;9.894;2023-07-30T06:13:46;4.15;;;1.90;;
25946;SDS011;13745;51.470;9.894;2023-07-30T06:16:31;5.85;;;2.45;;
25946;SDS011;13745;51.470;9.894;2023-07-30T06:19:17;6.43;;;2.13;;
25946;SDS011;13745;51.470;9.894;2023-07-30T06:22:03;3.22;;;1.60;;
25946;SDS011;13745;51.470;9.894;2023-07-30T06:24:48;5.68;;;1.45;;
25946;SDS011;13745;51.470;9.894;2023-07-30T06:27:33;4.32;;;1.98;;
25946;SDS011;13745;51.470;9.894;2023-07-30T06:30:18;3.83;;;1.98;;
25946;SDS011;13745;51.470;9.894;2023-07-30T06:33:03;4.43;;;1.92;;
25946;SDS011;13745;51.470;9.894;2023-07-30T06:35:50;4.63;;;2.03;;
25946;SDS011;13745;51.470;9.894;2023-07-30T06:38:35;4.20;;;2.00;;
25946;SDS011;13745;51.470;9.894;2023-07-30T06:41:20;6.32;;;1.95;;
25946;SDS011;13745;51.470;9.894;2023-07-30T06:44:05;3.25;;;1.75;;
25946;SDS011;13745;51.470;9.894;2023-07-30T06:46:50;2.58;;;1.73;;
25946;SDS011;13745;51.470;9.894;2023-07-30T06:49:36;2.33;;;1.50;;
25946;SDS011;13745;51.470;9.894;2023-07-30T06:52:22;2.85;;;1.73;;
25946;SDS011;13745;51.470;9.894;2023-07-30T06:55:08;3.25;;;2.15;;
25946;SDS011;13745;51.470;9.894;2023-07-30T06:57:53;2.47;;;1.67;;
25946;SDS011;13745;51.470;9.894;2023-07-30T07:00:38;2.13;;;1.80;;
25946;SDS011;13745;51.470;9.894;2023-07-30T07:03:23;5.80;;;1.60;;
25946;SDS011;13745;51.470;9.894;2023-07-30T07:06:08;3.33;;;1.50;;
25946;SDS011;13745;51.470;9.894;2023-07-30T07:08:55;2.63;;;1.35;;
25946;SDS011;13745;51.470;9.894;2023-07-30T07:11:41;5.10;;;1.85;;
25946;SDS011;13745;51.470;9.894;2023-07-30T07:14:26;4.43;;;1.83;;
25946;SDS011;13745;51.470;9.894;2023-07-30T07:17:11;2.92;;;1.30;;
25946;SDS011;13745;51.470;9.894;2023-07-30T07:19:56;3.45;;;1.65;;
25946;SDS011;13745;51.470;9.894;2023-07-30T07:22:41;2.22;;;1.42;;
25946;SDS011;13745;51.470;9.894;2023-07-30T07:25:28;2.60;;;1.27;;
25946;SDS011;13745;51.470;9.894;2023-07-30T07:28:13;3.80;;;1.70;;
25946;SDS011;13745;51.470;9.894;2023-07-30T07:30:58;3.63;;;1.48;;
25946;SDS011;13745;51.470;9.894;2023-07-30T07:33:44;1.60;;;1.13;;
25946;SDS011;13745;51.470;9.894;2023-07-30T07:36:29;2.95;;;1.58;;
25946;SDS011;13745;51.470;9.894;2023-07-30T07:39:14;2.03;;;1.38;;
25946;SDS011;13745;51.470;9.894;2023-07-30T07:42:01;2.95;;;1.50;;
25946;SDS011;13745;51.470;9.894;2023-07-30T07:44:46;3.50;;;1.80;;
25946;SDS011;13745;51.470;9.894;2023-07-30T07:47:31;1.98;;;1.40;;
25946;SDS011;13745;51.470;9.894;2023-07-30T07:50:17;1.95;;;1.52;;
25946;SDS011;13745;51.470;9.894;2023-07-30T07:53:02;5.65;;;2.00;;
25946;SDS011;13745;51.470;9.894;2023-07-30T07:55:47;3.00;;;1.30;;
25946;SDS011;13745;51.470;9.894;2023-07-30T07:58:33;2.92;;;1.50;;
25946;SDS011;13745;51.470;9.894;2023-07-30T08:01:19;2.38;;;1.50;;
25946;SDS011;13745;51.470;9.894;2023-07-30T08:04:04;3.03;;;1.50;;
25946;SDS011;13745;51.470;9.894;2023-07-30T08:06:49;3.40;;;1.77;;
25946;SDS011;13745;51.470;9.894;2023-07-30T08:09:35;2.95;;;1.50;;
25946;SDS011;13745;51.470;9.894;2023-07-30T08:12:20;4.82;;;1.80;;
25946;SDS011;13745;51.470;9.894;2023-07-30T08:15:07;2.58;;;1.50;;
25946;SDS011;13745;51.470;9.894;2023-07-30T08:17:52;2.72;;;1.70;;
25946;SDS011;13745;51.470;9.894;2023-07-30T08:20:37;5.53;;;2.55;;
25946;SDS011;13745;51.470;9.894;2023-07-30T08:23:23;2.17;;;1.70;;
25946;SDS011;13745;51.470;9.894;2023-07-30T08:26:08;4.25;;;1.83;;
25946;SDS011;13745;51.470;9.894;2023-07-30T08:28:53;3.78;;;1.83;;
25946;SDS011;13745;51.470;9.894;2023-07-30T08:31:40;5.00;;;1.77;;
25946;SDS011;13745;51.470;9.894;2023-07-30T08:34:25;5.18;;;2.50;;
25946;SDS011;13745;51.470;9.894;2023-07-30T08:37:10;5.90;;;1.50;;
25946;SDS011;13745;51.470;9.894;2023-07-30T08:39:55;4.85;;;2.45;;
25946;SDS011;13745;51.470;9.894;2023-07-30T08:42:41;8.20;;;3.10;;
25946;SDS011;13745;51.470;9.894;2023-07-30T08:45:26;3.92;;;2.30;;
25946;SDS011;13745;51.470;9.894;2023-07-30T08:48:12;4.07;;;2.70;;
25946;SDS011;13745;51.470;9.894;2023-07-30T08:50:58;4.03;;;2.40;;
25946;SDS011;13745;51.470;9.894;2023-07-30T08:53:44;4.60;;;2.00;;
25946;SDS011;13745;51.470;9.894;2023-07-30T08:56:30;4.55;;;2.60;;
25946;SDS011;13745;51.470;9.894;2023-07-30T08:59:15;3.50;;;2.40;;
25946;SDS011;13745;51.470;9.894;2023-07-30T09:02:03;4.25;;;3.05;;
25946;SDS011;13745;51.470;9.894;2023-07-30T09:04:55;3.40;;;2.70;;
25946;SDS011;13745;51.470;9.894;2023-07-30T09:07:43;3.33;;;2.70;;
25946;SDS011;13745;51.470;9.894;2023-07-30T09:10:28;4.50;;;3.08;;
25946;SDS011;13745;51.470;9.894;2023-07-30T09:13:14;7.72;;;3.83;;
25946;SDS011;13745;51.470;9.894;2023-07-30T09:16:09;3.75;;;3.13;;
25946;SDS011;13745;51.470;9.894;2023-07-30T09:18:55;4.82;;;3.20;;
25946;SDS011;13745;51.470;9.894;2023-07-30T09:21:41;3.65;;;3.10;;
25946;SDS011;13745;51.470;9.894;2023-07-30T09:24:27;5.05;;;3.67;;
25946;SDS011;13745;51.470;9.894;2023-07-30T09:27:11;4.45;;;3.22;;
25946;SDS011;13745;51.470;9.894;2023-07-30T09:29:57;4.32;;;3.58;;
25946;SDS011;13745;51.470;9.894;2023-07-30T09:32:43;5.15;;;3.50;;
25946;SDS011;13745;51.470;9.894;2023-07-30T09:35:28;5.65;;;3.20;;
25946;SDS011;13745;51.470;9.894;2023-07-30T09:38:19;4.63;;;3.67;;
25946;SDS011;13745;51.470;9.894;2023-07-30T09:41:04;5.10;;;3.00;;
25946;SDS011;13745;51.470;9.894;2023-07-30T09:43:56;5.93;;;3.63;;
25946;SDS011;13745;51.470;9.894;2023-07-30T09:46:43;4.88;;;3.63;;
25946;SDS011;13745;51.470;9.894;2023-07-30T09:49:28;6.10;;;4.28;;
25946;SDS011;13745;51.470;9.894;2023-07-30T09:52:14;4.63;;;4.10;;
25946;SDS011;13745;51.470;9.894;2023-07-30T09:55:02;6.00;;;4.15;;
25946;SDS011;13745;51.470;9.894;2023-07-30T09:57:51;5.13;;;4.60;;
25946;SDS011;13745;51.470;9.894;2023-07-30T10:00:37;5.25;;;4.43;;
25946;SDS011;13745;51.470;9.894;2023-07-30T10:03:22;5.68;;;5.18;;
25946;SDS011;13745;51.470;9.894;2023-07-30T10:06:08;8.70;;;4.88;;
25946;SDS011;13745;51.470;9.894;2023-07-30T10:08:56;6.53;;;4.43;;
25946;SDS011;13745;51.470;9.894;2023-07-30T10:11:46;7.00;;;4.15;;
25946;SDS011;13745;51.470;9.894;2023-07-30T10:14:34;6.45;;;4.10;;
25946;SDS011;13745;51.470;9.894;2023-07-30T10:17:20;4.93;;;3.42;;
25946;SDS011;13745;51.470;9.894;2023-07-30T10:20:18;7.03;;;4.15;;
25946;SDS011;13745;51.470;9.894;2023-07-30T10:23:05;6.80;;;5.88;;
25946;SDS011;13745;51.470;9.894;2023-07-30T10:25:52;6.93;;;4.35;;
25946;SDS011;13745;51.470;9.894;2023-07-30T10:28:40;6.22;;;4.50;;
25946;SDS011;13745;51.470;9.894;2023-07-30T10:31:37;5.47;;;4.22;;
25946;SDS011;13745;51.470;9.894;2023-07-30T10:34:25;6.85;;;4.53;;
25946;SDS011;13745;51.470;9.894;2023-07-30T10:37:12;7.55;;;4.38;;
25946;SDS011;13745;51.470;9.894;2023-07-30T10:40:15;9.23;;;5.05;;
25946;SDS011;13745;51.470;9.894;2023-07-30T10:43:02;8.52;;;5.32;;
25946;SDS011;13745;51.470;9.894;2023-07-30T10:45:52;5.00;;;4.50;;
25946;SDS011;13745;51.470;9.894;2023-07-30T10:48:37;7.55;;;4.90;;
25946;SDS011;13745;51.470;9.894;2023-07-30T10:51:23;6.88;;;4.57;;
25946;SDS011;13745;51.470;9.894;2023-07-30T10:54:09;5.50;;;4.50;;
25946;SDS011;13745;51.470;9.894;2023-07-30T10:56:54;6.00;;;4.47;;
25946;SDS011;13745;51.470;9.894;2023-07-30T10:59:39;7.75;;;4.60;;
25946;SDS011;13745;51.470;9.894;2023-07-30T11:02:26;4.57;;;4.10;;
25946;SDS011;13745;51.470;9.894;2023-07-30T11:05:13;5.47;;;4.72;;
25946;SDS011;13745;51.470;9.894;2023-07-30T11:07:58;6.35;;;4.25;;
25946;SDS011;13745;51.470;9.894;2023-07-30T11:10:43;6.28;;;4.55;;
25946;SDS011;13745;51.470;9.894;2023-07-30T11:13:34;4.70;;;3.65;;
25946;SDS011;13745;51.470;9.894;2023-07-30T11:16:21;4.00;;;3.50;;
25946;SDS011;13745;51.470;9.894;2023-07-30T11:19:08;4.07;;;3.30;;
25946;SDS011;13745;51.470;9.894;2023-07-30T11:21:55;3.40;;;3.10;;
25946;SDS011;13745;51.470;9.894;2023-07-30T11:24:42;3.30;;;2.42;;
25946;SDS011;13745;51.470;9.894;2023-07-30T11:27:27;3.13;;;2.53;;
25946;SDS011;13745;51.470;9.894;2023-07-30T11:30:12;3.45;;;2.55;;
25946;SDS011;13745;51.470;9.894;2023-07-30T11:32:57;3.58;;;3.20;;
25946;SDS011;13745;51.470;9.894;2023-07-30T11:35:44;4.97;;;2.72;;
25946;SDS011;13745;51.470;9.894;2023-07-30T11:38:30;3.55;;;2.47;;
25946;SDS011;13745;51.470;9.894;2023-07-30T11:41:16;3.53;;;2.80;;
25946;SDS011;13745;51.470;9.894;2023-07-30T11:44:02;6.40;;;2.92;;
25946;SDS011;13745;51.470;9.894;2023-07-30T11:46:52;3.53;;;2.65;;
25946;SDS011;13745;51.470;9.894;2023-07-30T11:49:38;4.30;;;3.10;;
25946;SDS011;13745;51.470;9.894;2023-07-30T11:52:25;3.55;;;3.03;;
25946;SDS011;13745;51.470;9.894;2023-07-30T11:55:10;5.05;;;3.15;;
25946;SDS011;13745;51.470;9.894;2023-07-30T11:57:55;3.05;;;2.72;;
25946;SDS011;13745;51.470;9.894;2023-07-30T12:00:43;3.47;;;2.88;;
25946;SDS011;13745;51.470;9.894;2023-07-30T12:03:28;3.35;;;2.38;;
25946;SDS011;13745;51.470;9.894;2023-07-30T12:06:13;4.38;;;2.58;;
25946;SDS011;13745;51.470;9.894;2023-07-30T12:09:00;4.57;;;2.88;;
25946;SDS011;13745;51.470;9.894;2023-07-30T12:11:46;4.32;;;2.55;;
25946;SDS011;13745;51.470;9.894;2023-07-30T12:14:42;3.33;;;2.22;;
25946;SDS011;13745;51.470;9.894;2023-07-30T12:17:29;2.65;;;2.45;;
25946;SDS011;13745;51.470;9.894;2023-07-30T12:20:14;3.78;;;2.35;;
25946;SDS011;13745;51.470;9.894;2023-07-30T12:23:00;2.75;;;2.47;;
25946;SDS011;13745;51.470;9.894;2023-07-30T12:25:48;3.90;;;2.83;;
25946;SDS011;13745;51.470;9.894;2023-07-30T12:28:33;3.42;;;2.63;;
25946;SDS011;13745;51.470;9.894;2023-07-30T12:31:18;2.95;;;2.60;;
25946;SDS011;13745;51.470;9.894;2023-07-30T12:34:03;4.10;;;1.92;;
25946;SDS011;13745;51.470;9.894;2023-07-30T12:36:48;2.85;;;2.20;;
25946;SDS011;13745;51.470;9.894;2023-07-30T12:39:34;5.65;;;1.70;;
25946;SDS011;13745;51.470;9.894;2023-07-30T12:42:20;3.38;;;1.85;;
25946;SDS011;13745;51.470;9.894;2023-07-30T12:45:05;3.85;;;2.13;;
25946;SDS011;13745;51.470;9.894;2023-07-30T12:47:51;3.78;;;1.92;;
25946;SDS011;13745;51.470;9.894;2023-07-30T12:50:36;3.40;;;1.60;;
25946;SDS011;13745;51.470;9.894;2023-07-30T12:53:21;2.13;;;1.55;;
25946;SDS011;13745;51.470;9.894;2023-07-30T12:56:06;2.60;;;1.75;;
25946;SDS011;13745;51.470;9.894;2023-07-30T12:58:53;3.83;;;1.95;;
25946;SDS011;13745;51.470;9.894;2023-07-30T13:01:38;3.45;;;1.70;;
25946;SDS011;13745;51.470;9.894;2023-07-30T13:04:23;3.20;;;1.98;;
25946;SDS011;13745;51.470;9.894;2023-07-30T13:07:10;4.05;;;2.00;;
25946;SDS011;13745;51.470;9.894;2023-07-30T13:10:02;2.35;;;1.55;;
25946;SDS011;13745;51.470;9.894;2023-07-30T13:12:48;5.88;;;2.15;;
25946;SDS011;13745;51.470;9.894;2023-07-30T13:15:35;6.25;;;2.00;;
25946;SDS011;13745;51.470;9.894;2023-07-30T13:18:20;3.70;;;2.20;;
25946;SDS011;13745;51.470;9.894;2023-07-30T13:21:05;2.38;;;1.73;;
25946;SDS011;13745;51.470;9.894;2023-07-30T13:23:50;2.25;;;1.80;;
25946;SDS011;13745;51.470;9.894;2023-07-30T13:26:35;5.15;;;2.00;;
25946;SDS011;13745;51.470;9.894;2023-07-30T13:29:20;9.85;;;2.20;;
25946;SDS011;13745;51.470;9.894;2023-07-30T13:32:07;6.82;;;1.80;;
25946;SDS011;13745;51.470;9.894;2023-07-30T13:34:52;3.83;;;2.55;;
25946;SDS011;13745;51.470;9.894;2023-07-30T13:37:37;4.47;;;2.70;;
25946;SDS011;13745;51.470;9.894;2023-07-30T13:40:23;3.83;;;2.45;;
25946;SDS011;13745;51.470;9.894;2023-07-30T13:43:08;5.55;;;2.58;;
25946;SDS011;13745;51.470;9.894;2023-07-30T13:45:53;3.67;;;2.80;;
25946;SDS011;13745;51.470;9.894;2023-07-30T13:48:39;3.85;;;2.80;;
25946;SDS011;13745;51.470;9.894;2023-07-30T13:51:24;6.40;;;2.90;;
25946;SDS011;13745;51.470;9.894;2023-07-30T13:54:10;4.22;;;2.20;;
25946;SDS011;13745;51.470;9.894;2023-07-30T13:56:55;5.88;;;2.45;;
25946;SDS011;13745;51.470;9.894;2023-07-30T13:59:40;4.53;;;2.33;;
25946;SDS011;13745;51.470;9.894;2023-07-30T14:02:28;8.15;;;2.60;;
25946;SDS011;13745;51.470;9.894;2023-07-30T14:05:14;4.75;;;2.53;;
25946;SDS011;13745;51.470;9.894;2023-07-30T14:07:59;6.35;;;2.47;;
25946;SDS011;13745;51.470;9.894;2023-07-30T14:10:45;5.45;;;2.40;;
25946;SDS011;13745;51.470;9.894;2023-07-30T14:13:30;3.35;;;2.10;;
25946;SDS011;13745;51.470;9.894;2023-07-30T14:16:15;8.32;;;2.33;;
25946;SDS011;13745;51.470;9.894;2023-07-30T14:19:00;6.70;;;2.55;;
25946;SDS011;13745;51.470;9.894;2023-07-30T14:21:47;6.72;;;2.28;;
25946;SDS011;13745;51.470;9.894;2023-07-30T14:24:32;4.30;;;1.70;;
25946;SDS011;13745;51.470;9.894;2023-07-30T14:27:18;3.28;;;2.05;;
25946;SDS011;13745;51.470;9.894;2023-07-30T14:30:03;4.55;;;2.10;;
25946;SDS011;13745;51.470;9.894;2023-07-30T14:32:49;4.55;;;1.83;;
25946;SDS011;13745;51.470;9.894;2023-07-30T14:35:34;4.10;;;1.80;;
25946;SDS011;13745;51.470;9.894;2023-07-30T14:38:23;5.30;;;2.13;;
25946;SDS011;13745;51.470;9.894;2023-07-30T14:41:08;4.93;;;2.00;;
25946;SDS011;13745;51.470;9.894;2023-07-30T14:43:54;5.85;;;2.17;;
25946;SDS011;13745;51.470;9.894;2023-07-30T14:46:39;4.97;;;2.30;;
25946;SDS011;13745;51.470;9.894;2023-07-30T14:49:24;4.82;;;1.85;;
25946;SDS011;13745;51.470;9.894;2023-07-30T14:52:10;3.78;;;1.35;;
25946;SDS011;13745;51.470;9.894;2023-07-30T14:54:56;4.82;;;1.58;;
25946;SDS011;13745;51.470;9.894;2023-07-30T14:57:42;3.28;;;1.02;;
25946;SDS011;13745;51.470;9.894;2023-07-30T15:00:27;5.57;;;1.10;;
25946;SDS011;13745;51.470;9.894;2023-07-30T15:03:12;3.70;;;1.20;;
25946;SDS011;13745;51.470;9.894;2023-07-30T15:05:58;4.60;;;1.20;;
25946;SDS011;13745;51.470;9.894;2023-07-30T15:08:43;2.55;;;1.10;;
25946;SDS011;13745;51.470;9.894;2023-07-30T15:11:29;3.05;;;1.10;;
25946;SDS011;13745;51.470;9.894;2023-07-30T15:14:14;6.85;;;1.25;;
25946;SDS011;13745;51.470;9.894;2023-07-30T15:17:00;3.25;;;0.90;;
25946;SDS011;13745;51.470;9.894;2023-07-30T15:19:45;10.18;;;1.25;;
25946;SDS011;13745;51.470;9.894;2023-07-30T15:22:31;1.48;;;0.77;;
25946;SDS011;13745;51.470;9.894;2023-07-30T15:25:16;3.50;;;1.27;;
25946;SDS011;13745;51.470;9.894;2023-07-30T15:28:03;3.90;;;1.25;;
25946;SDS011;13745;51.470;9.894;2023-07-30T15:30:49;5.20;;;0.98;;
25946;SDS011;13745;51.470;9.894;2023-07-30T15:33:35;4.43;;;1.35;;
25946;SDS011;13745;51.470;9.894;2023-07-30T15:36:21;3.97;;;0.95;;
25946;SDS011;13745;51.470;9.894;2023-07-30T15:39:06;4.35;;;1.27;;
25946;SDS011;13745;51.470;9.894;2023-07-30T15:41:51;5.32;;;0.98;;
25946;SDS011;13745;51.470;9.894;2023-07-30T15:44:38;6.38;;;1.10;;
25946;SDS011;13745;51.470;9.894;2023-07-30T15:47:23;1.83;;;1.00;;
25946;SDS011;13745;51.470;9.894;2023-07-30T15:50:09;4.15;;;1.17;;
25946;SDS011;13745;51.470;9.894;2023-07-30T15:52:54;3.60;;;0.80;;
25946;SDS011;13745;51.470;9.894;2023-07-30T15:55:39;2.70;;;1.00;;
25946;SDS011;13745;51.470;9.894;2023-07-30T15:58:25;7.65;;;1.58;;
25946;SDS011;13745;51.470;9.894;2023-07-30T16:01:11;6.88;;;1.83;;
25946;SDS011;13745;51.470;9.894;2023-07-30T16:03:57;5.07;;;2.65;;
25946;SDS011;13745;51.470;9.894;2023-07-30T16:06:41;4.13;;;1.13;;
25946;SDS011;13745;51.470;9.894;2023-07-30T16:09:26;5.60;;;1.10;;
25946;SDS011;13745;51.470;9.894;2023-07-30T16:12:11;2.95;;;0.88;;
25946;SDS011;13745;51.470;9.894;2023-07-30T16:14:57;3.80;;;0.80;;
25946;SDS011;13745;51.470;9.894;2023-07-30T16:17:44;2.85;;;0.90;;
25946;SDS011;13745;51.470;9.894;2023-07-30T16:20:29;5.10;;;1.02;;
25946;SDS011;13745;51.470;9.894;2023-07-30T16:23:14;3.17;;;0.75;;
25946;SDS011;13745;51.470;9.894;2023-07-30T16:25:59;3.22;;;1.00;;
25946;SDS011;13745;51.470;9.894;2023-07-30T16:28:44;4.72;;;0.93;;
25946;SDS011;13745;51.470;9.894;2023-07-30T16:31:29;3.15;;;0.90;;
25946;SDS011;13745;51.470;9.894;2023-07-30T16:34:16;2.95;;;1.20;;
25946;SDS011;13745;51.470;9.894;2023-07-30T16:37:01;4.45;;;0.50;;
25946;SDS011;13745;51.470;9.894;2023-07-30T16:39:46;4.78;;;0.63;;